createdAt,value
2023-02-26T00:00:07.332Z,70.52
2023-02-26T00:01:07.487Z,70.10
2023-02-26T00:02:07.674Z,70.10
2023-02-26T00:03:07.848Z,70.31
2023-02-26T00:04:07.993Z,70.31
2023-02-26T00:05:08.170Z,70.42
2023-02-26T00:06:08.368Z,70.52
2023-02-26T00:07:08.517Z,70.45
2023-02-26T00:08:08.689Z,70.00
2023-02-26T00:09:08.896Z,69.73
2023-02-26T00:10:09.048Z,69.90
2023-02-26T00:11:09.255Z,69.83
2023-02-26T00:12:09.403Z,69.73
2023-02-26T00:13:09.599Z,69.62
2023-02-26T00:14:09.740Z,70.04
2023-02-26T00:15:09.919Z,69.93
2023-02-26T00:16:10.111Z,70.24
2023-02-26T00:17:10.733Z,70.04
2023-02-26T00:18:10.438Z,69.73
2023-02-26T00:19:10.614Z,69.93
2023-02-26T00:20:10.783Z,69.62
2023-02-26T00:21:10.976Z,69.73
2023-02-26T00:22:11.120Z,69.83
2023-02-26T00:23:11.303Z,69.93
2023-02-26T00:24:11.472Z,69.93
2023-02-26T00:25:11.662Z,69.73
2023-02-26T00:26:11.853Z,69.65
2023-02-26T00:27:12.006Z,69.52
2023-02-26T00:28:12.189Z,69.96
2023-02-26T00:29:12.341Z,69.65
2023-02-26T00:30:12.507Z,69.55
2023-02-26T00:31:12.919Z,69.86
2023-02-26T00:32:12.985Z,69.96
2023-02-26T00:33:13.053Z,69.96
2023-02-26T00:34:13.329Z,69.86
2023-02-26T00:35:13.416Z,69.14
2023-02-26T00:36:13.600Z,69.86
2023-02-26T00:37:13.758Z,69.86
2023-02-26T00:38:13.927Z,69.76
2023-02-26T00:39:14.119Z,69.65
2023-02-26T00:40:14.265Z,69.14
2023-02-26T00:41:14.457Z,69.55
2023-02-26T00:42:14.625Z,69.45
2023-02-26T00:43:14.811Z,68.83
2023-02-26T00:44:15.004Z,68.52
2023-02-26T00:45:15.138Z,68.66
2023-02-26T00:46:15.383Z,69.24
2023-02-26T00:47:15.482Z,69.24
2023-02-26T00:48:15.659Z,69.59
2023-02-26T00:49:15.840Z,69.59
2023-02-26T00:50:16.024Z,69.38
2023-02-26T00:51:16.205Z,69.69
2023-02-26T00:52:16.382Z,69.48
2023-02-26T00:53:16.562Z,69.59
2023-02-26T00:54:16.769Z,69.48
2023-02-26T00:55:16.923Z,69.48
2023-02-26T00:56:17.068Z,69.38
2023-02-26T00:57:17.236Z,69.79
2023-02-26T00:58:17.435Z,69.38
2023-02-26T00:59:17.631Z,69.48
2023-02-26T01:00:17.802Z,69.17
2023-02-26T01:01:17.984Z,69.27
2023-02-26T01:02:18.142Z,69.59
2023-02-26T01:03:18.328Z,69.48
2023-02-26T01:04:18.527Z,69.41
2023-02-26T01:05:18.667Z,69.17
2023-02-26T01:06:18.852Z,69.41
2023-02-26T01:07:19.035Z,69.72
2023-02-26T01:08:19.212Z,69.59
2023-02-26T01:09:19.396Z,69.89
2023-02-26T01:10:19.577Z,69.82
2023-02-26T01:11:19.743Z,69.93
2023-02-26T01:12:19.946Z,69.69
2023-02-26T01:13:20.088Z,69.82
2023-02-26T01:14:20.283Z,69.62
2023-02-26T01:15:20.423Z,69.82
2023-02-26T01:16:20.606Z,69.82
2023-02-26T01:17:20.804Z,69.82
2023-02-26T01:18:20.953Z,69.62
2023-02-26T01:19:21.123Z,69.62
2023-02-26T01:20:21.314Z,69.62
2023-02-26T01:21:21.456Z,69.51
2023-02-26T01:22:21.638Z,69.82
2023-02-26T01:23:21.836Z,69.51
2023-02-26T01:24:21.978Z,69.72
2023-02-26T01:25:22.155Z,69.51
2023-02-26T01:26:22.397Z,69.82
2023-02-26T01:27:22.497Z,69.93
2023-02-26T01:28:22.677Z,69.93
2023-02-26T01:29:22.869Z,69.82
2023-02-26T01:30:23.048Z,69.72
2023-02-26T01:31:23.393Z,69.62
2023-02-26T01:32:23.653Z,69.72
2023-02-26T01:33:23.582Z,69.82
2023-02-26T01:34:23.768Z,70.03
2023-02-26T01:35:23.959Z,70.03
2023-02-26T01:36:24.561Z,69.82
2023-02-26T01:37:24.272Z,69.51
2023-02-26T01:38:24.487Z,69.62
2023-02-26T01:39:24.632Z,69.72
2023-02-26T01:40:24.811Z,69.82
2023-02-26T01:41:24.997Z,69.62
2023-02-26T01:42:25.172Z,69.51
2023-02-26T01:43:25.346Z,69.51
2023-02-26T01:44:25.534Z,69.62
2023-02-26T01:45:25.722Z,69.62
2023-02-26T01:46:25.967Z,69.31
2023-02-26T01:47:26.063Z,69.27
2023-02-26T01:48:26.258Z,69.27
2023-02-26T01:49:26.421Z,69.48
2023-02-26T01:50:26.609Z,69.51
2023-02-26T01:51:26.790Z,69.27
2023-02-26T01:52:27.015Z,69.20
2023-02-26T01:53:27.129Z,69.27
2023-02-26T01:54:27.302Z,68.90
2023-02-26T01:55:27.465Z,69.20
2023-02-26T01:56:27.963Z,69.00
2023-02-26T01:57:27.850Z,69.20
2023-02-26T01:58:27.993Z,69.20
2023-02-26T01:59:28.173Z,69.31
2023-02-26T02:00:28.348Z,69.20
2023-02-26T02:01:28.541Z,69.20
2023-02-26T02:02:28.783Z,69.10
2023-02-26T02:03:28.990Z,69.20
2023-02-26T02:04:29.052Z,69.20
2023-02-26T02:05:29.221Z,69.41
2023-02-26T02:06:29.419Z,69.38
2023-02-26T02:07:29.607Z,69.51
2023-02-26T02:08:29.776Z,69.48
2023-02-26T02:09:29.957Z,69.27
2023-02-26T02:10:30.132Z,69.27
2023-02-26T02:11:30.321Z,69.41
2023-02-26T02:12:30.502Z,69.38
2023-02-26T02:13:30.673Z,69.17
2023-02-26T02:14:30.857Z,69.27
2023-02-26T02:15:31.038Z,69.17
2023-02-26T02:16:31.310Z,69.17
2023-02-26T02:17:31.393Z,69.17
2023-02-26T02:18:31.558Z,69.17
2023-02-26T02:19:31.737Z,68.86
2023-02-26T02:20:31.962Z,68.86
2023-02-26T02:21:32.099Z,68.96
2023-02-26T02:22:32.273Z,68.96
2023-02-26T02:23:32.458Z,68.55
2023-02-26T02:24:32.628Z,68.45
2023-02-26T02:25:32.818Z,68.45
2023-02-26T02:26:32.982Z,68.55
2023-02-26T02:27:33.108Z,68.66
2023-02-26T02:28:33.289Z,68.45
2023-02-26T02:29:33.486Z,68.35
2023-02-26T02:30:33.706Z,68.45
2023-02-26T02:31:33.921Z,68.76
2023-02-26T02:32:34.066Z,68.35
2023-02-26T02:33:34.146Z,68.04
2023-02-26T02:34:34.336Z,67.93
2023-02-26T02:35:34.544Z,68.04
2023-02-26T02:36:34.688Z,68.45
2023-02-26T02:37:34.853Z,68.55
2023-02-26T02:38:35.039Z,68.55
2023-02-26T02:39:35.210Z,68.45
2023-02-26T02:40:35.432Z,68.45
2023-02-26T02:41:35.571Z,68.24
2023-02-26T02:42:35.754Z,68.35
2023-02-26T02:43:35.928Z,68.04
2023-02-26T02:44:36.106Z,68.04
2023-02-26T02:45:36.338Z,68.04
2023-02-26T02:46:36.485Z,68.24
2023-02-26T02:47:36.637Z,68.24
2023-02-26T02:48:36.819Z,67.93
2023-02-26T02:49:36.991Z,67.73
2023-02-26T02:50:37.190Z,67.73
2023-02-26T02:51:37.339Z,67.83
2023-02-26T02:52:37.521Z,67.93
2023-02-26T02:53:37.729Z,67.73
2023-02-26T02:54:37.904Z,67.63
2023-02-26T02:55:38.042Z,67.83
2023-02-26T02:56:38.230Z,67.83
2023-02-26T02:57:38.406Z,68.04
2023-02-26T02:58:38.619Z,67.83
2023-02-26T02:59:38.782Z,68.04
2023-02-26T03:00:39.020Z,67.93
2023-02-26T03:01:39.125Z,67.63
2023-02-26T03:02:39.321Z,67.52
2023-02-26T03:03:39.465Z,67.52
2023-02-26T03:04:39.640Z,67.32
2023-02-26T03:05:39.817Z,67.52
2023-02-26T03:06:40.004Z,67.83
2023-02-26T03:07:40.210Z,67.93
2023-02-26T03:08:40.354Z,67.42
2023-02-26T03:09:40.532Z,67.63
2023-02-26T03:10:40.729Z,67.73
2023-02-26T03:11:40.872Z,67.32
2023-02-26T03:12:41.098Z,66.91
2023-02-26T03:13:41.216Z,67.32
2023-02-26T03:14:41.489Z,67.32
2023-02-26T03:15:41.570Z,67.32
2023-02-26T03:16:41.795Z,67.52
2023-02-26T03:17:41.950Z,67.63
2023-02-26T03:18:42.125Z,67.63
2023-02-26T03:19:42.290Z,67.73
2023-02-26T03:20:42.470Z,67.32
2023-02-26T03:21:42.655Z,67.32
2023-02-26T03:22:42.845Z,67.11
2023-02-26T03:23:43.010Z,67.00
2023-02-26T03:24:43.196Z,66.80
2023-02-26T03:25:43.366Z,67.18
2023-02-26T03:26:43.569Z,67.18
2023-02-26T03:27:43.774Z,67.42
2023-02-26T03:28:43.921Z,67.42
2023-02-26T03:29:44.089Z,66.80
2023-02-26T03:30:44.296Z,66.97
2023-02-26T03:31:44.525Z,67.11
2023-02-26T03:32:44.678Z,66.97
2023-02-26T03:33:44.832Z,66.70
2023-02-26T03:34:44.975Z,66.91
2023-02-26T03:35:45.146Z,66.91
2023-02-26T03:36:45.336Z,67.42
2023-02-26T03:37:45.529Z,67.42
2023-02-26T03:38:45.721Z,67.00
2023-02-26T03:39:45.858Z,67.00
2023-02-26T03:40:46.038Z,66.70
2023-02-26T03:41:46.232Z,66.56
2023-02-26T03:42:46.398Z,66.70
2023-02-26T03:43:46.588Z,66.67
2023-02-26T03:44:46.745Z,66.80
2023-02-26T03:45:46.917Z,67.00
2023-02-26T03:46:47.099Z,66.80
2023-02-26T03:47:47.270Z,66.56
2023-02-26T03:48:47.490Z,66.60
2023-02-26T03:49:47.630Z,66.70
2023-02-26T03:50:47.823Z,66.70
2023-02-26T03:51:47.966Z,66.70
2023-02-26T03:52:48.145Z,66.39
2023-02-26T03:53:48.336Z,66.80
2023-02-26T03:54:48.509Z,66.39
2023-02-26T03:55:48.693Z,66.80
2023-02-26T03:56:48.878Z,66.60
2023-02-26T03:57:49.050Z,67.00
2023-02-26T03:58:49.238Z,66.60
2023-02-26T03:59:49.416Z,66.39
2023-02-26T04:00:49.601Z,66.80
2023-02-26T04:01:49.771Z,66.80
2023-02-26T04:02:49.962Z,66.49
2023-02-26T04:03:50.190Z,66.39
2023-02-26T04:04:50.319Z,66.60
2023-02-26T04:05:50.484Z,66.49
2023-02-26T04:06:50.674Z,66.60
2023-02-26T04:07:50.822Z,66.60
2023-02-26T04:08:51.025Z,66.80
2023-02-26T04:09:51.217Z,66.91
2023-02-26T04:10:51.367Z,66.91
2023-02-26T04:11:51.527Z,66.80
2023-02-26T04:12:51.723Z,66.49
2023-02-26T04:13:51.885Z,66.60
2023-02-26T04:14:52.085Z,66.39
2023-02-26T04:15:52.230Z,66.49
2023-02-26T04:16:52.441Z,66.28
2023-02-26T04:17:52.577Z,66.49
2023-02-26T04:18:52.791Z,66.60
2023-02-26T04:19:52.932Z,66.60
2023-02-26T04:20:53.115Z,66.39
2023-02-26T04:21:53.288Z,66.49
2023-02-26T04:22:53.512Z,66.60
2023-02-26T04:23:53.669Z,66.60
2023-02-26T04:24:53.812Z,66.80
2023-02-26T04:25:53.976Z,66.28
2023-02-26T04:26:54.168Z,66.39
2023-02-26T04:27:54.342Z,66.28
2023-02-26T04:28:54.538Z,66.39
2023-02-26T04:29:54.675Z,66.39
2023-02-26T04:30:55.021Z,66.39
2023-02-26T04:31:55.241Z,66.18
2023-02-26T04:32:55.217Z,66.28
2023-02-26T04:33:55.371Z,66.39
2023-02-26T04:34:55.539Z,66.28
2023-02-26T04:35:55.730Z,66.39
2023-02-26T04:36:55.912Z,66.39
2023-02-26T04:37:56.111Z,66.28
2023-02-26T04:38:56.265Z,66.18
2023-02-26T04:39:56.437Z,66.56
2023-02-26T04:40:56.615Z,66.28
2023-02-26T04:41:56.832Z,66.05
2023-02-26T04:42:56.972Z,65.84
2023-02-26T04:43:57.144Z,66.05
2023-02-26T04:44:57.318Z,65.77
2023-02-26T04:45:57.543Z,65.98
2023-02-26T04:46:57.684Z,66.18
2023-02-26T04:47:57.855Z,66.28
2023-02-26T04:48:58.032Z,65.88
2023-02-26T04:49:58.204Z,65.77
2023-02-26T04:50:58.374Z,65.77
2023-02-26T04:51:58.667Z,65.67
2023-02-26T04:52:58.743Z,65.67
2023-02-26T04:53:58.923Z,65.98
2023-02-26T04:54:59.107Z,66.28
2023-02-26T04:55:59.282Z,66.18
2023-02-26T04:56:59.481Z,66.18
2023-02-26T04:57:59.622Z,66.08
2023-02-26T04:58:59.786Z,65.98
2023-02-26T04:59:59.977Z,66.18
2023-02-26T05:01:00.166Z,65.88
2023-02-26T05:02:00.387Z,65.98
2023-02-26T05:03:00.499Z,65.88
2023-02-26T05:04:00.688Z,66.08
2023-02-26T05:05:00.860Z,65.98
2023-02-26T05:06:01.085Z,65.88
2023-02-26T05:07:01.189Z,65.98
2023-02-26T05:08:01.395Z,66.18
2023-02-26T05:09:01.563Z,65.88
2023-02-26T05:10:01.739Z,65.77
2023-02-26T05:11:01.924Z,65.88
2023-02-26T05:12:02.101Z,65.46
2023-02-26T05:13:02.326Z,65.36
2023-02-26T05:14:02.460Z,65.77
2023-02-26T05:15:02.631Z,66.18
2023-02-26T05:16:02.833Z,65.98
2023-02-26T05:17:02.973Z,65.98
2023-02-26T05:18:03.154Z,65.98
2023-02-26T05:19:03.322Z,66.08
2023-02-26T05:20:03.523Z,65.98
2023-02-26T05:21:03.738Z,65.77
2023-02-26T05:22:03.887Z,65.77
2023-02-26T05:23:04.046Z,65.56
2023-02-26T05:24:04.240Z,65.67
2023-02-26T05:25:04.410Z,65.98
2023-02-26T05:26:04.612Z,65.67
2023-02-26T05:27:04.784Z,65.77
2023-02-26T05:28:04.965Z,65.67
2023-02-26T05:29:05.136Z,65.67
2023-02-26T05:30:05.329Z,65.88
2023-02-26T05:31:05.634Z,65.56
2023-02-26T05:32:05.682Z,65.46
2023-02-26T05:33:05.853Z,65.77
2023-02-26T05:34:06.070Z,65.67
2023-02-26T05:35:06.208Z,65.77
2023-02-26T05:36:06.410Z,65.77
2023-02-26T05:37:06.556Z,65.77
2023-02-26T05:38:06.730Z,65.77
2023-02-26T05:39:06.911Z,65.25
2023-02-26T05:40:07.105Z,65.56
2023-02-26T05:41:07.274Z,65.67
2023-02-26T05:42:07.436Z,65.67
2023-02-26T05:43:07.568Z,65.67
2023-02-26T05:44:07.753Z,65.88
2023-02-26T05:45:07.955Z,65.77
2023-02-26T05:46:08.118Z,65.77
2023-02-26T05:47:08.263Z,65.36
2023-02-26T05:48:08.450Z,65.36
2023-02-26T05:49:08.607Z,65.36
2023-02-26T05:50:08.794Z,65.46
2023-02-26T05:51:09.006Z,65.15
2023-02-26T05:52:09.148Z,65.36
2023-02-26T05:53:09.325Z,65.36
2023-02-26T05:54:09.504Z,65.36
2023-02-26T05:55:09.682Z,65.36
2023-02-26T05:56:09.886Z,65.56
2023-02-26T05:57:10.010Z,65.36
2023-02-26T05:58:10.212Z,65.36
2023-02-26T05:59:10.360Z,65.46
2023-02-26T06:00:10.561Z,65.67
2023-02-26T06:01:10.718Z,65.46
2023-02-26T06:02:10.943Z,65.67
2023-02-26T06:03:11.137Z,65.56
2023-02-26T06:04:11.247Z,65.36
2023-02-26T06:05:11.497Z,65.25
2023-02-26T06:06:11.607Z,65.25
2023-02-26T06:07:11.751Z,65.46
2023-02-26T06:08:11.954Z,65.77
2023-02-26T06:09:12.134Z,65.36
2023-02-26T06:10:12.296Z,65.46
2023-02-26T06:11:12.450Z,65.25
2023-02-26T06:12:12.622Z,65.46
2023-02-26T06:13:12.801Z,65.67
2023-02-26T06:14:12.953Z,65.56
2023-02-26T06:15:13.107Z,65.77
2023-02-26T06:16:13.314Z,65.77
2023-02-26T06:17:13.460Z,65.56
2023-02-26T06:18:13.631Z,65.36
2023-02-26T06:19:13.801Z,65.56
2023-02-26T06:20:13.978Z,65.36
2023-02-26T06:21:14.131Z,65.15
2023-02-26T06:22:14.314Z,64.95
2023-02-26T06:23:14.472Z,65.25
2023-02-26T06:24:14.665Z,65.36
2023-02-26T06:25:14.805Z,65.46
2023-02-26T06:26:15.015Z,65.46
2023-02-26T06:27:15.213Z,65.46
2023-02-26T06:28:15.359Z,65.64
2023-02-26T06:29:15.519Z,65.46
2023-02-26T06:30:15.690Z,65.46
2023-02-26T06:31:15.873Z,65.43
2023-02-26T06:32:16.093Z,65.12
2023-02-26T06:33:16.172Z,65.15
2023-02-26T06:34:16.329Z,64.81
2023-02-26T06:35:16.485Z,64.95
2023-02-26T06:36:16.700Z,64.92
2023-02-26T06:37:16.883Z,64.92
2023-02-26T06:38:17.031Z,65.02
2023-02-26T06:39:17.192Z,64.81
2023-02-26T06:40:17.386Z,65.02
2023-02-26T06:41:17.582Z,65.12
2023-02-26T06:42:19.969Z,65.02
2023-02-26T06:43:17.944Z,65.22
2023-02-26T06:44:18.109Z,64.61
2023-02-26T06:45:18.262Z,64.61
2023-02-26T06:46:18.527Z,64.92
2023-02-26T06:47:18.620Z,65.12
2023-02-26T06:48:18.763Z,65.22
2023-02-26T06:49:18.916Z,64.61
2023-02-26T06:50:19.101Z,64.61
2023-02-26T06:51:19.236Z,64.50
2023-02-26T06:52:19.482Z,64.71
2023-02-26T06:53:19.625Z,64.50
2023-02-26T06:54:19.824Z,64.09
2023-02-26T06:55:19.987Z,64.29
2023-02-26T06:56:20.150Z,63.99
2023-02-26T06:57:20.330Z,64.19
2023-02-26T06:58:20.496Z,63.89
2023-02-26T06:59:20.693Z,63.89
2023-02-26T07:00:20.893Z,63.89
2023-02-26T07:01:21.068Z,64.17
2023-02-26T07:02:21.229Z,64.37
2023-02-26T07:03:21.368Z,64.58
2023-02-26T07:04:21.563Z,64.06
2023-02-26T07:05:21.740Z,64.06
2023-02-26T07:06:27.709Z,63.45
2023-02-26T07:07:23.150Z,63.75
2023-02-26T07:08:22.258Z,63.65
2023-02-26T07:09:22.555Z,63.85
2023-02-26T07:10:22.619Z,63.65
2023-02-26T07:11:22.794Z,64.17
2023-02-26T07:12:22.973Z,64.06
2023-02-26T07:13:23.158Z,63.45
2023-02-26T07:14:23.338Z,63.13
2023-02-26T07:15:23.525Z,63.34
2023-02-26T07:16:24.091Z,63.03
2023-02-26T07:17:23.854Z,63.03
2023-02-26T07:18:24.062Z,63.34
2023-02-26T07:19:24.242Z,63.34
2023-02-26T07:20:24.384Z,63.34
2023-02-26T07:21:24.527Z,63.31
2023-02-26T07:22:24.723Z,63.10
2023-02-26T07:23:24.887Z,63.10
2023-02-26T07:24:25.072Z,62.90
2023-02-26T07:25:25.238Z,62.90
2023-02-26T07:26:25.845Z,62.79
2023-02-26T07:27:25.592Z,62.90
2023-02-26T07:28:25.793Z,62.49
2023-02-26T07:29:25.954Z,61.77
2023-02-26T07:30:26.141Z,61.98
2023-02-26T07:31:26.422Z,62.49
2023-02-26T07:32:26.517Z,62.90
2023-02-26T07:33:26.635Z,62.66
2023-02-26T07:34:26.764Z,62.87
2023-02-26T07:35:26.953Z,62.77
2023-02-26T07:36:27.554Z,62.35
2023-02-26T07:37:27.250Z,62.46
2023-02-26T07:38:27.466Z,62.77
2023-02-26T07:39:27.643Z,62.15
2023-02-26T07:40:27.904Z,61.12
2023-02-26T07:41:28.006Z,61.19
2023-02-26T07:42:28.162Z,61.84
2023-02-26T07:43:28.324Z,62.12
2023-02-26T07:44:28.510Z,61.71
2023-02-26T07:45:28.679Z,61.19
2023-02-26T07:46:29.184Z,60.89
2023-02-26T07:47:29.012Z,61.40
2023-02-26T07:48:29.180Z,61.81
2023-02-26T07:49:29.343Z,61.51
2023-02-26T07:50:29.494Z,60.96
2023-02-26T07:51:31.610Z,61.27
2023-02-26T07:52:29.830Z,61.37
2023-02-26T07:53:30.006Z,61.17
2023-02-26T07:54:30.186Z,66.82
2023-02-26T07:55:30.472Z,77.20
2023-02-26T07:56:30.541Z,77.68
2023-02-26T07:57:30.694Z,72.96
2023-02-26T07:58:30.862Z,70.90
2023-02-26T07:59:31.039Z,70.36
2023-02-26T08:00:31.189Z,69.84
2023-02-26T08:01:31.434Z,67.99
2023-02-26T08:02:31.534Z,68.30
2023-02-26T08:03:31.732Z,68.10
2023-02-26T08:04:31.991Z,67.86
2023-02-26T08:05:32.054Z,67.76
2023-02-26T08:06:32.251Z,66.83
2023-02-26T08:07:32.407Z,67.24
2023-02-26T08:08:32.643Z,67.76
2023-02-26T08:09:32.752Z,67.44
2023-02-26T08:10:32.957Z,67.76
2023-02-26T08:11:33.126Z,67.62
2023-02-26T08:12:33.307Z,68.34
2023-02-26T08:13:33.504Z,66.90
2023-02-26T08:14:33.704Z,66.36
2023-02-26T08:15:33.893Z,66.46
2023-02-26T08:16:34.033Z,65.12
2023-02-26T08:17:34.211Z,64.61
2023-02-26T08:18:34.437Z,64.00
2023-02-26T08:19:34.551Z,63.66
2023-02-26T08:20:34.724Z,64.07
2023-02-26T08:21:34.919Z,63.94
2023-02-26T08:22:35.077Z,63.22
2023-02-26T08:23:35.269Z,62.99
2023-02-26T08:24:35.405Z,61.35
2023-02-26T08:25:35.576Z,61.04
2023-02-26T08:26:35.738Z,59.78
2023-02-26T08:27:35.971Z,59.38
2023-02-26T08:28:36.156Z,59.68
2023-02-26T08:29:36.282Z,60.47
2023-02-26T08:30:36.522Z,59.55
2023-02-26T08:31:36.693Z,58.91
2023-02-26T08:32:36.851Z,57.99
2023-02-26T08:33:36.962Z,57.48
2023-02-26T08:34:37.119Z,57.25
2023-02-26T08:35:37.299Z,57.66
2023-02-26T08:36:37.487Z,57.97
2023-02-26T08:37:37.656Z,57.32
2023-02-26T08:38:37.869Z,56.40
2023-02-26T08:39:37.990Z,56.40
2023-02-26T08:40:38.154Z,55.97
2023-02-26T08:41:38.310Z,56.17
2023-02-26T08:42:38.495Z,57.09
2023-02-26T08:43:38.685Z,56.04
2023-02-26T08:44:38.836Z,56.25
2023-02-26T08:45:39.020Z,56.56
2023-02-26T08:46:39.217Z,54.90
2023-02-26T08:47:42.330Z,55.71
2023-02-26T08:48:40.543Z,56.40
2023-02-26T08:49:39.684Z,56.10
2023-02-26T08:50:39.882Z,54.87
2023-02-26T08:51:40.048Z,54.97
2023-02-26T08:52:40.197Z,55.05
2023-02-26T08:53:40.380Z,55.26
2023-02-26T08:54:40.568Z,53.09
2023-02-26T08:55:40.741Z,52.98
2023-02-26T08:56:40.896Z,53.59
2023-02-26T08:57:41.061Z,53.90
2023-02-26T08:58:41.224Z,52.76
2023-02-26T08:59:41.406Z,51.94
2023-02-26T09:00:41.581Z,53.47
2023-02-26T09:01:41.805Z,54.87
2023-02-26T09:02:41.975Z,54.26
2023-02-26T09:03:42.099Z,53.96
2023-02-26T09:04:42.275Z,53.22
2023-02-26T09:05:42.452Z,54.03
2023-02-26T09:06:42.607Z,54.31
2023-02-26T09:07:42.810Z,57.06
2023-02-26T09:08:42.951Z,57.64
2023-02-26T09:09:43.131Z,61.51
2023-02-26T09:10:43.384Z,62.29
2023-02-26T09:11:43.476Z,59.31
2023-02-26T09:12:43.660Z,56.16
2023-02-26T09:13:43.841Z,56.95
2023-02-26T09:14:43.994Z,56.85
2023-02-26T09:15:44.159Z,54.28
2023-02-26T09:16:44.345Z,53.67
2023-02-26T09:17:44.483Z,55.91
2023-02-26T09:18:44.686Z,54.66
2023-02-26T09:19:44.805Z,53.14
2023-02-26T09:20:44.983Z,52.61
2023-02-26T09:21:45.152Z,51.98
2023-02-26T09:22:45.307Z,50.15
2023-02-26T09:23:45.482Z,50.63
2023-02-26T09:24:45.675Z,50.03
2023-02-26T09:25:45.832Z,50.11
2023-02-26T09:26:45.995Z,50.01
2023-02-26T09:27:46.185Z,50.18
2023-02-26T09:28:46.344Z,49.96
2023-02-26T09:29:46.499Z,49.73
2023-02-26T09:30:46.706Z,49.84
2023-02-26T09:31:47.025Z,49.01
2023-02-26T09:32:47.081Z,49.10
2023-02-26T09:33:47.191Z,49.08
2023-02-26T09:34:47.373Z,48.85
2023-02-26T09:35:47.531Z,48.63
2023-02-26T09:36:47.692Z,47.82
2023-02-26T09:37:47.892Z,48.10
2023-02-26T09:38:48.038Z,48.00
2023-02-26T09:39:48.201Z,47.88
2023-02-26T09:40:48.357Z,47.86
2023-02-26T09:41:48.526Z,47.55
2023-02-26T09:42:48.709Z,47.63
2023-02-26T09:43:48.882Z,47.33
2023-02-26T09:44:49.049Z,47.41
2023-02-26T09:45:49.258Z,46.98
2023-02-26T09:46:49.398Z,46.58
2023-02-26T09:47:49.599Z,46.86
2023-02-26T09:48:49.689Z,46.66
2023-02-26T09:49:49.864Z,46.76
2023-02-26T09:50:50.031Z,47.14
2023-02-26T09:51:50.298Z,47.04
2023-02-26T09:52:50.343Z,47.02
2023-02-26T09:53:50.528Z,46.72
2023-02-26T09:54:50.708Z,47.00
2023-02-26T09:55:50.873Z,46.09
2023-02-26T09:56:51.066Z,45.77
2023-02-26T09:57:51.215Z,46.17
2023-02-26T09:58:51.378Z,45.34
2023-02-26T09:59:51.557Z,45.65
2023-02-26T10:00:51.735Z,46.33
2023-02-26T10:01:51.942Z,46.93
2023-02-26T10:02:52.083Z,47.00
2023-02-26T10:03:52.281Z,44.50
2023-02-26T10:04:52.438Z,42.47
2023-02-26T10:05:52.618Z,43.77
2023-02-26T10:06:52.805Z,43.58
2023-02-26T10:07:52.962Z,44.16
2023-02-26T10:08:53.140Z,43.58
2023-02-26T10:09:53.307Z,42.27
2023-02-26T10:10:53.446Z,42.97
2023-02-26T10:11:53.637Z,41.07
2023-02-26T10:12:53.816Z,44.18
2023-02-26T10:13:58.329Z,44.46
2023-02-26T10:14:54.146Z,44.16
2023-02-26T10:15:54.314Z,44.34
2023-02-26T10:16:54.552Z,43.84
2023-02-26T10:17:54.654Z,44.04
2023-02-26T10:18:54.808Z,44.13
2023-02-26T10:19:54.984Z,42.32
2023-02-26T10:20:55.193Z,42.52
2023-02-26T10:21:55.348Z,42.52
2023-02-26T10:22:55.511Z,42.60
2023-02-26T10:23:55.678Z,42.90
2023-02-26T10:24:55.840Z,42.90
2023-02-26T10:25:56.009Z,43.09
2023-02-26T10:26:56.169Z,43.40
2023-02-26T10:27:56.378Z,43.48
2023-02-26T10:28:56.490Z,43.18
2023-02-26T10:29:56.669Z,43.19
2023-02-26T10:30:56.907Z,41.99
2023-02-26T10:31:57.078Z,40.19
2023-02-26T10:32:57.173Z,42.79
2023-02-26T10:33:57.329Z,43.49
2023-02-26T10:34:57.517Z,43.19
2023-02-26T10:35:59.279Z,42.38
2023-02-26T10:36:57.889Z,39.07
2023-02-26T10:37:58.017Z,38.78
2023-02-26T10:38:58.193Z,40.25
2023-02-26T10:39:58.379Z,40.06
2023-02-26T10:40:58.543Z,39.46
2023-02-26T10:41:59.210Z,39.74
2023-02-26T10:42:58.888Z,41.63
2023-02-26T10:43:59.050Z,41.74
2023-02-26T10:44:59.230Z,40.22
2023-02-26T10:45:59.440Z,39.92
2023-02-26T10:46:59.610Z,40.20
2023-02-26T10:47:59.726Z,40.40
2023-02-26T10:48:59.894Z,39.88
2023-02-26T10:50:00.065Z,39.38
2023-02-26T10:51:00.248Z,39.38
2023-02-26T10:52:00.419Z,40.86
2023-02-26T10:53:00.561Z,41.36
2023-02-26T10:54:00.730Z,41.03
2023-02-26T10:55:00.892Z,41.63
2023-02-26T10:56:01.100Z,41.82
2023-02-26T10:57:01.260Z,41.22
2023-02-26T10:58:01.446Z,42.09
2023-02-26T10:59:01.605Z,41.99
2023-02-26T11:00:01.778Z,41.87
2023-02-26T11:01:01.963Z,41.58
2023-02-26T11:02:02.142Z,41.28
2023-02-26T11:03:02.329Z,41.75
2023-02-26T11:04:02.486Z,40.76
2023-02-26T11:05:07.782Z,40.14
2023-02-26T11:06:03.883Z,38.85
2023-02-26T11:07:03.019Z,39.75
2023-02-26T11:08:03.200Z,39.92
2023-02-26T11:09:03.366Z,38.64
2023-02-26T11:10:03.531Z,39.45
2023-02-26T11:11:03.717Z,37.86
2023-02-26T11:12:03.890Z,38.34
2023-02-26T11:13:04.055Z,38.04
2023-02-26T11:14:04.221Z,37.82
2023-02-26T11:15:04.403Z,37.92
2023-02-26T11:16:04.610Z,37.32
2023-02-26T11:17:04.767Z,39.11
2023-02-26T11:18:04.960Z,39.09
2023-02-26T11:19:05.100Z,38.70
2023-02-26T11:20:05.406Z,35.72
2023-02-26T11:21:05.471Z,34.94
2023-02-26T11:22:05.637Z,35.82
2023-02-26T11:23:05.819Z,35.44
2023-02-26T11:24:05.997Z,33.06
2023-02-26T11:25:06.177Z,32.86
2023-02-26T11:26:06.322Z,33.54
2023-02-26T11:27:06.499Z,33.83
2023-02-26T11:28:06.671Z,32.84
2023-02-26T11:29:06.836Z,32.96
2023-02-26T11:30:07.030Z,33.55
2023-02-26T11:31:07.273Z,33.55
2023-02-26T11:32:07.413Z,33.17
2023-02-26T11:33:07.512Z,34.68
2023-02-26T11:34:07.718Z,33.60
2023-02-26T11:35:07.892Z,34.71
2023-02-26T11:36:08.053Z,37.20
2023-02-26T11:37:08.219Z,36.42
2023-02-26T11:38:08.433Z,36.83
2023-02-26T11:39:08.560Z,35.24
2023-02-26T11:40:08.736Z,37.95
2023-02-26T11:41:08.930Z,39.14
2023-02-26T11:42:09.084Z,41.44
2023-02-26T11:43:09.255Z,42.31
2023-02-26T11:44:09.425Z,41.22
2023-02-26T11:45:09.641Z,41.09
2023-02-26T11:46:09.814Z,42.29
2023-02-26T11:47:09.925Z,41.67
2023-02-26T11:48:10.111Z,40.88
2023-02-26T11:49:10.284Z,40.16
2023-02-26T11:50:10.490Z,40.26
2023-02-26T11:51:10.608Z,39.84
2023-02-26T11:52:10.788Z,39.45
2023-02-26T11:53:10.951Z,38.43
2023-02-26T11:54:11.121Z,38.14
2023-02-26T11:55:11.337Z,39.92
2023-02-26T11:56:11.502Z,40.52
2023-02-26T11:57:11.678Z,41.53
2023-02-26T11:58:11.827Z,42.13
2023-02-26T11:59:12.000Z,42.53
2023-02-26T12:00:12.188Z,42.85
2023-02-26T12:01:12.401Z,42.45
2023-02-26T12:02:12.594Z,43.15
2023-02-26T12:03:12.669Z,42.27
2023-02-26T12:04:12.855Z,43.07
2023-02-26T12:05:13.049Z,43.16
2023-02-26T12:06:13.191Z,42.29
2023-02-26T12:07:13.359Z,42.47
2023-02-26T12:08:13.551Z,40.98
2023-02-26T12:09:13.712Z,41.16
2023-02-26T12:10:13.878Z,41.36
2023-02-26T12:11:14.048Z,42.05
2023-02-26T12:12:14.222Z,42.05
2023-02-26T12:13:14.387Z,41.87
2023-02-26T12:14:14.609Z,41.97
2023-02-26T12:15:14.718Z,41.20
2023-02-26T12:16:14.938Z,41.30
2023-02-26T12:17:15.089Z,41.69
2023-02-26T12:18:15.839Z,41.82
2023-02-26T12:19:15.461Z,42.31
2023-02-26T12:20:15.585Z,42.53
2023-02-26T12:21:15.768Z,42.53
2023-02-26T12:22:15.932Z,42.25
2023-02-26T12:23:16.086Z,42.85
2023-02-26T12:24:16.289Z,42.18
2023-02-26T12:25:16.420Z,42.87
2023-02-26T12:26:16.583Z,42.67
2023-02-26T12:27:16.747Z,42.89
2023-02-26T12:28:16.916Z,42.99
2023-02-26T12:29:17.095Z,43.09
2023-02-26T12:30:17.248Z,43.09
2023-02-26T12:31:17.494Z,42.37
2023-02-26T12:32:17.635Z,42.15
2023-02-26T12:33:17.731Z,41.55
2023-02-26T12:34:17.899Z,39.84
2023-02-26T12:35:18.054Z,39.92
2023-02-26T12:36:18.233Z,40.42
2023-02-26T12:37:18.413Z,41.50
2023-02-26T12:38:18.599Z,41.38
2023-02-26T12:39:18.813Z,41.08
2023-02-26T12:40:18.991Z,40.96
2023-02-26T12:41:19.154Z,40.26
2023-02-26T12:42:19.312Z,41.66
2023-02-26T12:43:19.478Z,41.16
2023-02-26T12:44:19.685Z,40.96
2023-02-26T12:45:19.846Z,41.46
2023-02-26T12:46:20.057Z,39.67
2023-02-26T12:47:20.176Z,40.16
2023-02-26T12:48:20.360Z,39.54
2023-02-26T12:49:20.568Z,39.25
2023-02-26T12:50:20.721Z,38.93
2023-02-26T12:51:20.902Z,38.93
2023-02-26T12:52:21.093Z,37.03
2023-02-26T12:53:21.284Z,37.11
2023-02-26T12:54:21.429Z,37.51